sensor_id;sensor_type;location;lat;lon;timestamp;temperature;humidity
40538;DHT22;27925;41.874;12.526;2022-11-20T11:42:58;16.60;81.70
40538;DHT22;27925;41.874;12.526;2022-11-20T11:45:24;16.70;81.90
40538;DHT22;27925;41.874;12.526;2022-11-20T11:47:51;16.80;82.10
40538;DHT22;27925;41.874;12.526;2022-11-20T11:55:47;17.10;81.20
40538;DHT22;27925;41.874;12.526;2022-11-20T11:58:46;17.20;80.90
40538;DHT22;27925;41.874;12.526;2022-11-20T12:04:17;17.30;79.50
40538;DHT22;27925;41.874;12.526;2022-11-20T12:06:48;17.30;79.10
40538;DHT22;27925;41.874;12.526;2022-11-20T12:09:18;17.30;79.30
40538;DHT22;27925;41.874;12.526;2022-11-20T12:11:51;17.40;79.60
40538;DHT22;27925;41.874;12.526;2022-11-20T12:16:58;17.40;77.80
40538;DHT22;27925;41.874;12.526;2022-11-20T12:19:24;17.20;77.00
40538;DHT22;27925;41.874;12.526;2022-11-20T12:22:19;17.20;77.20
40538;DHT22;27925;41.874;12.526;2022-11-20T12:27:39;17.30;77.40
40538;DHT22;27925;41.874;12.526;2022-11-20T12:30:10;17.30;75.60
40538;DHT22;27925;41.874;12.526;2022-11-20T12:40:32;17.60;74.60
40538;DHT22;27925;41.874;12.526;2022-11-20T13:02:45;17.40;72.80
40538;DHT22;27925;41.874;12.526;2022-11-20T13:05:27;17.40;72.50
40538;DHT22;27925;41.874;12.526;2022-11-20T13:07:56;17.30;72.40
40538;DHT22;27925;41.874;12.526;2022-11-20T13:13:01;17.40;71.80
40538;DHT22;27925;41.874;12.526;2022-11-20T13:18:13;17.50;71.70
40538;DHT22;27925;41.874;12.526;2022-11-20T13:20:44;17.50;70.50
40538;DHT22;27925;41.874;12.526;2022-11-20T13:23:10;17.40;70.40
40538;DHT22;27925;41.874;12.526;2022-11-20T13:25:39;17.40;75.40
40538;DHT22;27925;41.874;12.526;2022-11-20T13:30:35;17.40;71.20
40538;DHT22;27925;41.874;12.526;2022-11-20T13:35:35;17.40;69.90
40538;DHT22;27925;41.874;12.526;2022-11-20T13:40:30;17.20;70.20
40538;DHT22;27925;41.874;12.526;2022-11-20T13:43:00;17.10;69.50
40538;DHT22;27925;41.874;12.526;2022-11-20T13:45:31;17.10;69.10
40538;DHT22;27925;41.874;12.526;2022-11-20T13:48:01;17.10;69.10
40538;DHT22;27925;41.874;12.526;2022-11-20T13:56:43;17.30;69.50
40538;DHT22;27925;41.874;12.526;2022-11-20T14:01:21;17.30;68.70
40538;DHT22;27925;41.874;12.526;2022-11-20T14:03:48;17.20;68.50
40538;DHT22;27925;41.874;12.526;2022-11-20T14:06:32;17.20;68.50
40538;DHT22;27925;41.874;12.526;2022-11-20T14:08:59;17.10;67.30
40538;DHT22;27925;41.874;12.526;2022-11-20T14:11:27;17.00;67.70
40538;DHT22;27925;41.874;12.526;2022-11-20T14:14:10;16.90;66.80
40538;DHT22;27925;41.874;12.526;2022-11-20T14:16:38;16.80;68.20
40538;DHT22;27925;41.874;12.526;2022-11-20T14:21:51;16.70;66.40
40538;DHT22;27925;41.874;12.526;2022-11-20T14:24:22;16.70;66.70
40538;DHT22;27925;41.874;12.526;2022-11-20T14:26:49;16.70;66.40
40538;DHT22;27925;41.874;12.526;2022-11-20T14:29:18;16.70;66.30
40538;DHT22;27925;41.874;12.526;2022-11-20T14:31:45;16.60;65.90
40538;DHT22;27925;41.874;12.526;2022-11-20T14:34:32;16.50;66.20
40538;DHT22;27925;41.874;12.526;2022-11-20T14:37:04;16.50;66.30
40538;DHT22;27925;41.874;12.526;2022-11-20T14:39:41;16.40;66.10
40538;DHT22;27925;41.874;12.526;2022-11-20T14:42:19;16.40;66.00
40538;DHT22;27925;41.874;12.526;2022-11-20T14:44:45;16.30;65.30
40538;DHT22;27925;41.874;12.526;2022-11-20T14:47:13;16.30;64.60
40538;DHT22;27925;41.874;12.526;2022-11-20T14:49:40;16.20;64.30
40538;DHT22;27925;41.874;12.526;2022-11-20T14:52:19;16.20;64.00
40538;DHT22;27925;41.874;12.526;2022-11-20T14:54:50;16.10;63.40
40538;DHT22;27925;41.874;12.526;2022-11-20T14:57:33;16.00;63.40
40538;DHT22;27925;41.874;12.526;2022-11-20T15:00:20;16.10;63.70
40538;DHT22;27925;41.874;12.526;2022-11-20T15:02:48;16.00;63.80
40538;DHT22;27925;41.874;12.526;2022-11-20T15:05:15;15.90;63.60
40538;DHT22;27925;41.874;12.526;2022-11-20T15:07:47;15.90;63.80
40538;DHT22;27925;41.874;12.526;2022-11-20T15:10:25;15.80;63.80
40538;DHT22;27925;41.874;12.526;2022-11-20T15:13:06;15.80;63.90
40538;DHT22;27925;41.874;12.526;2022-11-20T15:18:14;15.70;63.80
40538;DHT22;27925;41.874;12.526;2022-11-20T15:20:41;15.60;63.00
40538;DHT22;27925;41.874;12.526;2022-11-20T15:23:16;15.60;62.90
40538;DHT22;27925;41.874;12.526;2022-11-20T15:25:44;15.50;62.70
40538;DHT22;27925;41.874;12.526;2022-11-20T15:28:21;15.50;62.80
40538;DHT22;27925;41.874;12.526;2022-11-20T15:30:50;15.40;62.60
40538;DHT22;27925;41.874;12.526;2022-11-20T15:33:16;15.30;63.00
40538;DHT22;27925;41.874;12.526;2022-11-20T15:35:43;15.30;62.60
40538;DHT22;27925;41.874;12.526;2022-11-20T15:38:09;15.20;62.60
40538;DHT22;27925;41.874;12.526;2022-11-20T15:40:34;15.20;62.60
40538;DHT22;27925;41.874;12.526;2022-11-20T15:43:00;15.10;62.60
40538;DHT22;27925;41.874;12.526;2022-11-20T15:45:33;15.00;62.70
40538;DHT22;27925;41.874;12.526;2022-11-20T15:48:00;14.90;62.70
40538;DHT22;27925;41.874;12.526;2022-11-20T15:50:32;14.90;62.30
40538;DHT22;27925;41.874;12.526;2022-11-20T15:52:59;14.80;62.50
40538;DHT22;27925;41.874;12.526;2022-11-20T15:55:24;14.70;62.30
40538;DHT22;27925;41.874;12.526;2022-11-20T15:57:50;14.70;62.60
40538;DHT22;27925;41.874;12.526;2022-11-20T16:00:16;14.60;62.50
40538;DHT22;27925;41.874;12.526;2022-11-20T16:02:42;14.60;62.70
40538;DHT22;27925;41.874;12.526;2022-11-20T16:05:11;14.50;62.60
40538;DHT22;27925;41.874;12.526;2022-11-20T16:07:37;14.40;62.50
40538;DHT22;27925;41.874;12.526;2022-11-20T16:10:04;14.40;62.50
40538;DHT22;27925;41.874;12.526;2022-11-20T16:12:30;14.40;62.60
40538;DHT22;27925;41.874;12.526;2022-11-20T16:15:14;14.30;62.80
40538;DHT22;27925;41.874;12.526;2022-11-20T16:17:58;14.30;62.50
40538;DHT22;27925;41.874;12.526;2022-11-20T16:20:24;14.20;62.80
40538;DHT22;27925;41.874;12.526;2022-11-20T16:22:49;14.20;63.00
40538;DHT22;27925;41.874;12.526;2022-11-20T16:25:15;14.20;63.10
40538;DHT22;27925;41.874;12.526;2022-11-20T16:27:41;14.10;63.00
40538;DHT22;27925;41.874;12.526;2022-11-20T16:30:07;14.10;63.10
40538;DHT22;27925;41.874;12.526;2022-11-20T16:32:33;14.10;63.60
40538;DHT22;27925;41.874;12.526;2022-11-20T16:34:59;14.00;63.90
40538;DHT22;27925;41.874;12.526;2022-11-20T16:37:24;14.00;63.50
40538;DHT22;27925;41.874;12.526;2022-11-20T16:39:50;13.90;63.30
40538;DHT22;27925;41.874;12.526;2022-11-20T16:42:16;13.90;63.80
40538;DHT22;27925;41.874;12.526;2022-11-20T16:44:42;13.90;63.70
40538;DHT22;27925;41.874;12.526;2022-11-20T16:47:10;13.80;63.80
40538;DHT22;27925;41.874;12.526;2022-11-20T16:49:36;13.80;64.40
40538;DHT22;27925;41.874;12.526;2022-11-20T16:52:01;13.80;64.70
40538;DHT22;27925;41.874;12.526;2022-11-20T16:54:27;13.80;65.00
40538;DHT22;27925;41.874;12.526;2022-11-20T16:56:53;13.70;65.00
40538;DHT22;27925;41.874;12.526;2022-11-20T16:59:18;13.70;65.20
40538;DHT22;27925;41.874;12.526;2022-11-20T17:01:44;13.70;65.40
40538;DHT22;27925;41.874;12.526;2022-11-20T17:04:10;13.60;65.50
40538;DHT22;27925;41.874;12.526;2022-11-20T17:06:38;13.60;65.60
40538;DHT22;27925;41.874;12.526;2022-11-20T17:09:05;13.60;65.80
40538;DHT22;27925;41.874;12.526;2022-11-20T17:11:33;13.60;65.90
40538;DHT22;27925;41.874;12.526;2022-11-20T17:14:00;13.60;66.20
40538;DHT22;27925;41.874;12.526;2022-11-20T17:16:28;13.60;66.10
40538;DHT22;27925;41.874;12.526;2022-11-20T17:18:58;13.60;66.50
40538;DHT22;27925;41.874;12.526;2022-11-20T17:21:24;13.50;66.30
40538;DHT22;27925;41.874;12.526;2022-11-20T17:23:50;13.50;66.60
40538;DHT22;27925;41.874;12.526;2022-11-20T17:26:21;13.50;66.60
40538;DHT22;27925;41.874;12.526;2022-11-20T17:29:01;13.50;67.10
40538;DHT22;27925;41.874;12.526;2022-11-20T17:31:28;13.50;67.20
40538;DHT22;27925;41.874;12.526;2022-11-20T17:33:54;13.50;67.20
40538;DHT22;27925;41.874;12.526;2022-11-20T17:36:20;13.40;67.20
40538;DHT22;27925;41.874;12.526;2022-11-20T17:38:46;13.40;66.80
